Time;durP1;ratioP1;P1;durP2;ratioP2;P2;SDS_P1;SDS_P2;PMS_P1;PMS_P2;Temp;Humidity;BMP_temperature;BMP_pressure;BME280_temperature;BME280_humidity;BME280_pressure;Samples;Min_cycle;Max_cycle;Signal;HPM_P1;HPM_P2
2023/05/22 00:01:18;;;;;;;12.00;9.30;;;;;;;;;;4966852;28;20072;-78
2023/05/22 00:03:47;;;;;;;10.10;8.40;;;;;;;;;;4972202;28;20038;-79
2023/05/22 00:06:13;;;;;;;9.02;7.82;;;;;;;;;;4940096;28;20038;-79
2023/05/22 00:08:39;;;;;;;8.88;7.13;;;;;;;;;;4963910;28;20038;-79
2023/05/22 00:11:04;;;;;;;8.82;7.78;;;;;;;;;;4939967;28;20102;-79
2023/05/22 00:13:30;;;;;;;9.57;8.10;;;;;;;;;;4952008;28;20449;-79
2023/05/22 00:15:56;;;;;;;9.73;8.25;;;;;;;;;;4977169;28;20492;-78
2023/05/22 00:18:21;;;;;;;8.63;7.72;;;;;;;;;;4970128;28;20106;-79
2023/05/22 00:20:47;;;;;;;10.20;9.10;;;;;;;;;;4943491;28;20603;-79
2023/05/22 00:23:13;;;;;;;9.35;8.32;;;;;;;;;;4945864;28;20043;-78
2023/05/22 00:25:39;;;;;;;7.85;6.90;;;;;;;;;;4953703;28;20061;-79
2023/05/22 00:28:04;;;;;;;7.13;6.43;;;;;;;;;;4948473;28;20511;-79
2023/05/22 00:30:30;;;;;;;9.02;8.13;;;;;;;;;;4950713;28;20043;-78
2023/05/22 00:32:56;;;;;;;10.43;7.63;;;;;;;;;;4955968;28;20074;-78
2023/05/22 00:35:21;;;;;;;8.75;7.45;;;;;;;;;;4957249;28;20550;-78
2023/05/22 00:37:47;;;;;;;8.70;7.80;;;;;;;;;;4952383;28;20048;-78
2023/05/22 00:40:14;;;;;;;12.80;9.75;;;;;;;;;;4969901;28;20069;-78
2023/05/22 00:42:43;;;;;;;8.02;7.22;;;;;;;;;;4966927;28;20139;-78
2023/05/22 00:45:10;;;;;;;13.50;10.63;;;;;;;;;;4966701;28;20109;-78
2023/05/22 00:47:36;;;;;;;7.95;7.15;;;;;;;;;;4955445;28;20030;-78
2023/05/22 00:50:03;;;;;;;9.65;7.55;;;;;;;;;;4980243;28;20040;-78
2023/05/22 00:52:29;;;;;;;11.40;9.75;;;;;;;;;;4975933;28;20084;-78
2023/05/22 00:54:54;;;;;;;10.35;8.45;;;;;;;;;;4948347;28;20038;-78
2023/05/22 00:57:21;;;;;;;12.05;9.32;;;;;;;;;;4968277;28;20124;-78
2023/05/22 00:59:47;;;;;;;10.45;8.82;;;;;;;;;;4975030;28;20042;-78
2023/05/22 01:02:15;;;;;;;10.23;8.45;;;;;;;;;;4946286;28;20689;-78
2023/05/22 01:04:47;;;;;;;9.02;7.32;;;;;;;;;;4972410;28;20042;-78
2023/05/22 01:07:12;;;;;;;11.15;9.30;;;;;;;;;;4937521;28;20043;-78
2023/05/22 01:09:37;;;;;;;12.02;9.20;;;;;;;;;;4951796;28;20043;-78
2023/05/22 01:12:19;;;;;;;8.02;6.80;;;;;;;;;;4957634;28;20490;-78
2023/05/22 01:15:02;;;;;;;10.20;8.68;;;;;;;;;;4958365;28;20039;-77
2023/05/22 01:17:36;;;;;;;9.40;7.25;;;;;;;;;;4932900;28;20046;-78
2023/05/22 01:20:13;;;;;;;12.18;9.35;;;;;;;;;;4963762;28;20055;-77
2023/05/22 01:23:02;;;;;;;10.80;9.07;;;;;;;;;;4955292;28;20578;-78
2023/05/22 01:25:55;;;;;;;11.02;9.40;;;;;;;;;;4967466;28;20046;-77
2023/05/22 01:28:43;;;;;;;9.10;7.50;;;;;;;;;;4928477;28;20036;-78
2023/05/22 01:31:12;;;;;;;10.63;8.73;;;;;;;;;;4939410;28;20121;-78
2023/05/22 01:33:45;;;;;;;9.77;7.65;;;;;;;;;;4974399;28;20565;-78
2023/05/22 01:36:13;;;;;;;8.82;7.47;;;;;;;;;;4961625;28;20545;-78
2023/05/22 01:38:41;;;;;;;8.90;7.68;;;;;;;;;;4922062;28;20741;-79
2023/05/22 01:41:07;;;;;;;8.55;7.13;;;;;;;;;;4962810;28;20045;-79
2023/05/22 01:43:33;;;;;;;12.65;10.35;;;;;;;;;;4967464;28;20035;-78
2023/05/22 01:45:58;;;;;;;11.13;9.75;;;;;;;;;;4969377;28;20113;-78
2023/05/22 01:48:24;;;;;;;12.40;9.02;;;;;;;;;;4954274;28;20117;-78
2023/05/22 01:50:52;;;;;;;13.60;10.00;;;;;;;;;;4962989;28;20058;-79
2023/05/22 01:53:27;;;;;;;8.73;7.40;;;;;;;;;;4932185;28;20059;-79
2023/05/22 01:55:59;;;;;;;7.97;7.05;;;;;;;;;;4951749;28;20046;-79
2023/05/22 01:58:51;;;;;;;9.63;7.88;;;;;;;;;;4956729;28;20046;-79
2023/05/22 02:01:18;;;;;;;8.77;7.78;;;;;;;;;;4949991;28;20027;-78
2023/05/22 02:03:45;;;;;;;7.45;6.57;;;;;;;;;;4955699;28;20092;-78
2023/05/22 02:06:13;;;;;;;8.63;7.15;;;;;;;;;;4969084;28;20727;-79
2023/05/22 02:08:40;;;;;;;12.68;9.20;;;;;;;;;;4962836;28;20046;-79
2023/05/22 02:11:08;;;;;;;12.15;8.85;;;;;;;;;;4982253;28;20041;-78
2023/05/22 02:13:34;;;;;;;12.00;9.60;;;;;;;;;;4980112;28;20055;-78
2023/05/22 02:16:02;;;;;;;11.60;9.23;;;;;;;;;;4953932;28;20049;-78
2023/05/22 02:18:29;;;;;;;8.05;6.53;;;;;;;;;;4964389;28;20515;-78
2023/05/22 02:20:58;;;;;;;10.02;8.07;;;;;;;;;;4971653;28;20042;-78
2023/05/22 02:23:24;;;;;;;9.48;8.38;;;;;;;;;;4970367;28;20039;-78
2023/05/22 02:25:50;;;;;;;11.10;8.70;;;;;;;;;;4973207;28;20048;-78
2023/05/22 02:28:15;;;;;;;8.32;7.35;;;;;;;;;;4981877;28;20674;-78
2023/05/22 02:30:40;;;;;;;14.10;9.32;;;;;;;;;;4993284;28;20038;-78
2023/05/22 02:33:08;;;;;;;8.25;7.00;;;;;;;;;;4981331;28;20038;-78
2023/05/22 02:35:34;;;;;;;8.18;7.10;;;;;;;;;;4978631;28;20038;-78
2023/05/22 02:38:00;;;;;;;11.55;9.13;;;;;;;;;;4978696;28;20045;-77
2023/05/22 02:40:25;;;;;;;11.65;8.02;;;;;;;;;;4984453;28;20046;-78
2023/05/22 02:42:50;;;;;;;7.95;7.15;;;;;;;;;;4973182;28;20042;-78
2023/05/22 02:45:16;;;;;;;12.18;7.50;;;;;;;;;;4973587;28;20030;-78
2023/05/22 02:47:41;;;;;;;12.05;10.00;;;;;;;;;;4974177;28;20042;-78
2023/05/22 02:50:07;;;;;;;7.97;7.03;;;;;;;;;;4981083;28;20545;-78
2023/05/22 02:52:33;;;;;;;8.00;6.72;;;;;;;;;;4979884;28;20161;-78
2023/05/22 02:54:59;;;;;;;8.98;7.55;;;;;;;;;;4968123;28;20763;-78
2023/05/22 02:57:25;;;;;;;13.68;10.43;;;;;;;;;;4971273;28;20145;-78
2023/05/22 02:59:51;;;;;;;10.93;9.10;;;;;;;;;;4978354;28;20077;-78
2023/05/22 03:02:17;;;;;;;10.13;8.05;;;;;;;;;;4985384;28;20042;-78
2023/05/22 03:04:42;;;;;;;10.38;8.48;;;;;;;;;;5009537;23;20037;-80
2023/05/22 03:07:08;;;;;;;8.05;6.72;;;;;;;;;;5012620;28;20109;-79
2023/05/22 03:09:33;;;;;;;12.10;8.20;;;;;;;;;;5019736;28;20033;-81
2023/05/22 03:11:59;;;;;;;9.90;8.55;;;;;;;;;;5009114;28;20108;-79
2023/05/22 03:14:25;;;;;;;10.85;8.57;;;;;;;;;;5003482;28;20042;-80
2023/05/22 03:16:50;;;;;;;7.85;6.82;;;;;;;;;;4978266;28;20044;-80
2023/05/22 03:19:16;;;;;;;7.85;6.45;;;;;;;;;;4995442;28;20041;-80
2023/05/22 03:21:44;;;;;;;11.50;8.95;;;;;;;;;;4996343;28;20042;-79
2023/05/22 03:24:11;;;;;;;8.73;7.43;;;;;;;;;;4991738;28;20034;-80
2023/05/22 03:26:37;;;;;;;15.68;10.15;;;;;;;;;;4982439;28;20034;-79
2023/05/22 03:29:02;;;;;;;8.90;6.72;;;;;;;;;;4975798;28;20096;-80
2023/05/22 03:31:30;;;;;;;9.10;6.93;;;;;;;;;;4983457;28;20121;-81
2023/05/22 03:33:56;;;;;;;11.55;8.75;;;;;;;;;;4984796;28;20081;-80
2023/05/22 03:36:22;;;;;;;10.48;8.55;;;;;;;;;;4991700;28;20030;-81
2023/05/22 03:38:47;;;;;;;7.47;6.63;;;;;;;;;;4974553;28;20125;-81
2023/05/22 03:41:13;;;;;;;8.40;6.55;;;;;;;;;;4996416;28;20109;-80
2023/05/22 03:43:38;;;;;;;8.77;6.80;;;;;;;;;;5002866;28;20042;-80
2023/05/22 03:46:04;;;;;;;9.80;7.45;;;;;;;;;;4996375;28;20576;-79
2023/05/22 03:48:30;;;;;;;8.43;7.53;;;;;;;;;;4988109;28;20111;-79
2023/05/22 03:50:55;;;;;;;11.40;9.30;;;;;;;;;;4996884;28;20471;-80
2023/05/22 03:53:21;;;;;;;12.68;9.25;;;;;;;;;;4986573;28;20176;-80
2023/05/22 03:55:46;;;;;;;12.93;10.38;;;;;;;;;;4984732;28;20042;-80
2023/05/22 03:58:11;;;;;;;12.10;9.27;;;;;;;;;;4995884;28;20438;-81
2023/05/22 04:00:37;;;;;;;12.60;10.23;;;;;;;;;;4978287;28;20073;-81
2023/05/22 04:03:03;;;;;;;10.57;8.60;;;;;;;;;;4987221;28;20042;-81
2023/05/22 04:05:30;;;;;;;11.57;8.82;;;;;;;;;;4988128;28;20048;-81
2023/05/22 04:07:56;;;;;;;12.80;9.75;;;;;;;;;;4969718;28;20047;-79
2023/05/22 04:10:22;;;;;;;10.30;8.38;;;;;;;;;;4985636;28;20045;-80
2023/05/22 04:12:48;;;;;;;11.57;9.68;;;;;;;;;;4999143;28;20034;-80
2023/05/22 04:15:13;;;;;;;11.77;9.48;;;;;;;;;;4999954;28;20118;-78
2023/05/22 04:17:42;;;;;;;13.73;10.35;;;;;;;;;;4994459;28;21102;-78
2023/05/22 04:20:08;;;;;;;9.20;8.00;;;;;;;;;;4980978;28;20073;-80
2023/05/22 04:22:34;;;;;;;11.70;9.95;;;;;;;;;;5003203;28;20041;-79
2023/05/22 04:24:59;;;;;;;15.88;11.02;;;;;;;;;;5003519;28;20442;-80
2023/05/22 04:27:25;;;;;;;9.20;8.25;;;;;;;;;;4984675;28;20057;-79
2023/05/22 04:29:50;;;;;;;10.77;8.98;;;;;;;;;;4992429;28;20121;-79
2023/05/22 04:32:20;;;;;;;9.63;8.20;;;;;;;;;;4997098;28;20041;-78
2023/05/22 04:34:49;;;;;;;9.98;8.32;;;;;;;;;;4979570;28;20042;-78
2023/05/22 04:37:17;;;;;;;13.85;10.30;;;;;;;;;;4987522;28;20095;-79
2023/05/22 04:39:44;;;;;;;11.63;8.63;;;;;;;;;;4972173;28;20046;-79
2023/05/22 04:42:10;;;;;;;14.93;11.35;;;;;;;;;;4986350;28;20413;-78
2023/05/22 04:44:37;;;;;;;13.43;9.82;;;;;;;;;;4995360;28;20720;-79
2023/05/22 04:47:03;;;;;;;12.77;9.52;;;;;;;;;;4986660;28;20433;-78
2023/05/22 04:49:28;;;;;;;13.20;10.57;;;;;;;;;;4986442;28;20205;-78
2023/05/22 04:51:56;;;;;;;14.15;11.00;;;;;;;;;;4982257;28;20518;-79
2023/05/22 04:54:22;;;;;;;12.77;10.88;;;;;;;;;;4996689;28;20470;-79
2023/05/22 04:56:48;;;;;;;10.25;7.45;;;;;;;;;;4985190;28;20047;-79
2023/05/22 04:59:15;;;;;;;11.48;9.00;;;;;;;;;;4996814;28;20042;-79
2023/05/22 05:01:44;;;;;;;12.73;10.10;;;;;;;;;;4989932;28;20541;-79
2023/05/22 05:04:10;;;;;;;15.10;10.88;;;;;;;;;;5009634;28;20041;-79
2023/05/22 05:06:36;;;;;;;13.73;11.82;;;;;;;;;;4999186;28;20668;-79
2023/05/22 05:09:03;;;;;;;12.15;10.27;;;;;;;;;;4987937;28;20144;-78
2023/05/22 05:11:28;;;;;;;13.75;10.10;;;;;;;;;;4983092;28;20755;-80
2023/05/22 05:13:54;;;;;;;16.10;10.63;;;;;;;;;;4981255;28;20070;-78
2023/05/22 05:16:20;;;;;;;11.68;9.55;;;;;;;;;;4989352;28;20053;-79
2023/05/22 05:18:45;;;;;;;14.77;11.05;;;;;;;;;;4977733;28;20042;-79
2023/05/22 05:21:11;;;;;;;13.45;11.32;;;;;;;;;;4997727;28;20085;-79
2023/05/22 05:23:36;;;;;;;11.00;9.10;;;;;;;;;;4999909;28;20057;-80
2023/05/22 05:26:01;;;;;;;12.50;10.15;;;;;;;;;;4990131;28;20038;-79
2023/05/22 05:28:27;;;;;;;16.08;11.63;;;;;;;;;;4993792;28;20042;-78
2023/05/22 05:30:52;;;;;;;14.32;11.25;;;;;;;;;;4968814;28;20425;-78
2023/05/22 05:33:18;;;;;;;13.65;10.63;;;;;;;;;;4989239;28;20072;-79
2023/05/22 05:35:44;;;;;;;13.50;11.40;;;;;;;;;;4963997;28;20137;-79
2023/05/22 05:38:09;;;;;;;8.90;7.43;;;;;;;;;;4991698;28;20177;-77
2023/05/22 05:40:35;;;;;;;15.45;9.43;;;;;;;;;;4985334;28;20038;-78
2023/05/22 05:43:00;;;;;;;12.73;10.93;;;;;;;;;;4990981;28;20471;-78
2023/05/22 05:45:26;;;;;;;8.65;6.65;;;;;;;;;;4989856;28;20543;-78
2023/05/22 05:47:51;;;;;;;8.23;7.35;;;;;;;;;;4988464;28;20053;-78
2023/05/22 05:50:17;;;;;;;9.50;8.02;;;;;;;;;;4954698;28;20047;-78
2023/05/22 05:52:42;;;;;;;13.65;10.68;;;;;;;;;;4980501;28;20045;-78
2023/05/22 05:55:08;;;;;;;12.32;9.85;;;;;;;;;;4982045;28;20100;-78
2023/05/22 05:57:34;;;;;;;10.70;8.70;;;;;;;;;;4966426;28;20061;-78
2023/05/22 06:00:00;;;;;;;15.07;10.68;;;;;;;;;;4979148;28;20184;-78
2023/05/22 06:02:25;;;;;;;12.18;10.10;;;;;;;;;;4990525;28;20410;-78
2023/05/22 06:04:52;;;;;;;12.00;10.73;;;;;;;;;;4974033;28;20227;-78
2023/05/22 06:07:18;;;;;;;13.63;9.73;;;;;;;;;;4955786;28;20078;-78
2023/05/22 06:09:43;;;;;;;12.45;9.70;;;;;;;;;;4975077;28;20038;-78
2023/05/22 06:12:12;;;;;;;10.02;9.00;;;;;;;;;;4966640;28;20053;-78
2023/05/22 06:14:38;;;;;;;14.20;11.13;;;;;;;;;;4987430;28;20053;-78
2023/05/22 06:17:05;;;;;;;10.43;9.25;;;;;;;;;;4980869;28;20085;-77
2023/05/22 06:19:31;;;;;;;11.68;9.88;;;;;;;;;;4982865;28;20042;-77
2023/05/22 06:21:56;;;;;;;13.00;10.73;;;;;;;;;;4990632;28;20565;-77
2023/05/22 06:24:21;;;;;;;14.20;10.85;;;;;;;;;;4969146;28;20056;-77
2023/05/22 06:26:47;;;;;;;11.90;10.27;;;;;;;;;;4961431;28;20489;-77
2023/05/22 06:29:12;;;;;;;15.07;10.82;;;;;;;;;;4990120;28;20049;-78
2023/05/22 06:31:38;;;;;;;11.75;10.23;;;;;;;;;;4974456;28;20034;-77
2023/05/22 06:34:04;;;;;;;11.07;7.78;;;;;;;;;;4981705;28;20054;-77
2023/05/22 06:36:29;;;;;;;10.95;9.13;;;;;;;;;;4972736;28;20092;-78
2023/05/22 06:38:55;;;;;;;12.05;9.68;;;;;;;;;;4963277;28;20042;-78
2023/05/22 06:41:21;;;;;;;13.15;10.52;;;;;;;;;;4972069;28;20038;-77
2023/05/22 06:43:46;;;;;;;8.23;6.93;;;;;;;;;;4971550;28;20133;-77
2023/05/22 06:46:12;;;;;;;11.13;8.75;;;;;;;;;;4957462;28;20118;-77
2023/05/22 06:48:37;;;;;;;13.60;10.23;;;;;;;;;;4979254;28;20521;-78
2023/05/22 06:51:03;;;;;;;13.00;10.57;;;;;;;;;;4987704;28;20052;-78
2023/05/22 06:53:28;;;;;;;12.55;10.32;;;;;;;;;;4967972;28;20036;-78
2023/05/22 06:55:55;;;;;;;11.27;9.43;;;;;;;;;;4973147;28;20569;-78
2023/05/22 06:58:20;;;;;;;11.65;10.18;;;;;;;;;;4992052;28;20045;-78
2023/05/22 07:00:45;;;;;;;11.48;9.73;;;;;;;;;;4979227;28;20124;-77
2023/05/22 07:03:11;;;;;;;11.85;10.02;;;;;;;;;;4982320;28;20038;-78
2023/05/22 07:05:36;;;;;;;12.45;10.50;;;;;;;;;;4967751;28;20109;-78
2023/05/22 07:08:02;;;;;;;9.95;8.95;;;;;;;;;;4962288;28;20128;-78
2023/05/22 07:10:27;;;;;;;12.63;9.95;;;;;;;;;;4988405;28;20072;-78
2023/05/22 07:12:53;;;;;;;13.55;11.07;;;;;;;;;;4985184;28;20129;-78
2023/05/22 07:15:18;;;;;;;8.40;7.57;;;;;;;;;;4982502;28;20538;-78
2023/05/22 07:17:44;;;;;;;13.27;10.85;;;;;;;;;;4993588;28;20157;-78
2023/05/22 07:20:10;;;;;;;12.10;10.80;;;;;;;;;;4990578;28;20456;-78
2023/05/22 07:22:36;;;;;;;11.50;8.90;;;;;;;;;;4980393;28;20116;-78
2023/05/22 07:25:02;;;;;;;12.38;9.77;;;;;;;;;;4990907;28;20042;-78
2023/05/22 07:27:27;;;;;;;8.55;7.65;;;;;;;;;;4978026;28;20164;-77
2023/05/22 07:29:53;;;;;;;12.20;10.32;;;;;;;;;;4985577;28;20045;-78
2023/05/22 07:32:18;;;;;;;12.35;9.88;;;;;;;;;;4974645;28;20092;-78
2023/05/22 07:34:44;;;;;;;13.80;10.73;;;;;;;;;;4987858;28;20128;-78
2023/05/22 07:37:12;;;;;;;9.57;8.57;;;;;;;;;;4978446;28;20486;-78
2023/05/22 07:39:37;;;;;;;12.73;9.93;;;;;;;;;;4988231;28;20113;-78
2023/05/22 07:42:03;;;;;;;13.43;9.98;;;;;;;;;;4983175;28;20121;-78
2023/05/22 07:44:29;;;;;;;10.75;9.65;;;;;;;;;;4984737;28;20034;-78
2023/05/22 07:46:55;;;;;;;11.38;10.13;;;;;;;;;;4967755;28;20565;-78
2023/05/22 07:49:22;;;;;;;13.98;9.82;;;;;;;;;;4983712;28;20054;-78
2023/05/22 07:51:48;;;;;;;10.82;9.13;;;;;;;;;;5001243;28;20041;-78
2023/05/22 07:54:14;;;;;;;10.60;9.30;;;;;;;;;;4999485;28;20080;-78
2023/05/22 07:56:42;;;;;;;10.10;8.07;;;;;;;;;;4986460;28;20038;-78
2023/05/22 07:59:10;;;;;;;13.45;10.30;;;;;;;;;;4972306;28;20565;-78
2023/05/22 08:01:36;;;;;;;12.95;9.50;;;;;;;;;;4977519;28;20493;-78
2023/05/22 08:04:02;;;;;;;12.48;9.77;;;;;;;;;;4995761;28;20138;-78
2023/05/22 08:06:28;;;;;;;11.25;9.63;;;;;;;;;;5001041;28;20042;-78
2023/05/22 08:08:54;;;;;;;12.00;10.68;;;;;;;;;;4998311;28;20097;-78
2023/05/22 08:11:20;;;;;;;9.70;8.43;;;;;;;;;;4966514;28;20057;-78
2023/05/22 08:13:46;;;;;;;12.43;10.00;;;;;;;;;;4980689;28;20545;-78
2023/05/22 08:16:11;;;;;;;12.13;9.73;;;;;;;;;;4977641;28;20049;-78
2023/05/22 08:18:36;;;;;;;12.18;10.30;;;;;;;;;;4971437;28;20049;-78
2023/05/22 08:21:02;;;;;;;11.15;8.85;;;;;;;;;;4969171;28;20038;-78
2023/05/22 08:23:28;;;;;;;11.52;9.48;;;;;;;;;;4992874;28;20109;-78
2023/05/22 08:25:54;;;;;;;10.63;9.63;;;;;;;;;;5004824;28;20037;-78
2023/05/22 08:28:20;;;;;;;11.30;9.30;;;;;;;;;;4973417;28;20056;-78
2023/05/22 08:30:45;;;;;;;13.68;10.13;;;;;;;;;;4998820;28;20367;-78
2023/05/22 08:33:11;;;;;;;11.13;9.73;;;;;;;;;;4968430;28;20046;-78
2023/05/22 08:35:36;;;;;;;10.75;9.65;;;;;;;;;;4991609;28;20030;-78
2023/05/22 08:38:02;;;;;;;11.75;9.60;;;;;;;;;;4985848;28;20138;-78
2023/05/22 08:40:38;;;;;;;10.23;9.23;;;;;;;;;;4992828;28;20413;-78
2023/05/22 08:43:05;;;;;;;10.07;9.07;;;;;;;;;;4980711;28;20537;-78
2023/05/22 08:45:32;;;;;;;9.82;8.43;;;;;;;;;;4961265;28;20081;-78
2023/05/22 08:48:01;;;;;;;10.13;9.13;;;;;;;;;;4995726;28;20130;-78
2023/05/22 08:50:27;;;;;;;10.13;9.05;;;;;;;;;;4980482;28;20097;-78
2023/05/22 08:52:56;;;;;;;9.98;7.95;;;;;;;;;;4964647;28;20101;-78
2023/05/22 08:55:21;;;;;;;10.50;9.40;;;;;;;;;;4992667;28;20093;-78
2023/05/22 08:57:48;;;;;;;8.35;7.22;;;;;;;;;;4982335;28;20173;-78
2023/05/22 09:00:15;;;;;;;10.18;9.10;;;;;;;;;;4973602;28;20034;-78
2023/05/22 09:02:41;;;;;;;9.77;8.60;;;;;;;;;;4977472;28;20090;-78
2023/05/22 09:05:08;;;;;;;10.45;8.00;;;;;;;;;;4980113;23;20101;-79
2023/05/22 09:07:34;;;;;;;10.38;8.82;;;;;;;;;;4975179;28;20088;-79
2023/05/22 09:10:00;;;;;;;9.80;8.50;;;;;;;;;;5002409;28;20508;-79
2023/05/22 09:12:27;;;;;;;10.35;9.35;;;;;;;;;;4980062;28;20045;-79
2023/05/22 09:14:54;;;;;;;13.77;9.02;;;;;;;;;;4991050;28;20041;-79
2023/05/22 09:17:20;;;;;;;10.48;8.30;;;;;;;;;;4996194;28;20053;-79
2023/05/22 09:19:46;;;;;;;10.68;9.05;;;;;;;;;;4986158;28;20049;-79
2023/05/22 09:22:12;;;;;;;10.13;9.13;;;;;;;;;;4988794;28;20077;-79
2023/05/22 09:24:40;;;;;;;9.60;8.60;;;;;;;;;;4991559;28;20494;-79
2023/05/22 09:27:07;;;;;;;9.48;8.68;;;;;;;;;;4960199;28;20055;-79
2023/05/22 09:29:47;;;;;;;11.07;8.63;;;;;;;;;;4988233;28;20125;-79
2023/05/22 09:32:13;;;;;;;10.13;9.13;;;;;;;;;;4961487;28;20041;-79
2023/05/22 09:34:39;;;;;;;11.80;9.60;;;;;;;;;;4986098;28;20099;-79
2023/05/22 09:37:05;;;;;;;9.82;8.82;;;;;;;;;;4990041;28;20497;-79
2023/05/22 09:39:44;;;;;;;9.23;8.30;;;;;;;;;;4996080;28;20626;-79
2023/05/22 09:42:13;;;;;;;9.50;8.60;;;;;;;;;;4997880;28;20053;-79
2023/05/22 09:44:41;;;;;;;9.88;8.88;;;;;;;;;;4976037;28;20753;-79
2023/05/22 09:47:07;;;;;;;9.50;8.40;;;;;;;;;;4981875;28;20569;-79
2023/05/22 09:49:40;;;;;;;11.00;8.60;;;;;;;;;;4974765;28;20045;-79
2023/05/22 09:52:07;;;;;;;9.75;8.20;;;;;;;;;;4968443;28;20629;-79
2023/05/22 09:54:34;;;;;;;9.95;7.93;;;;;;;;;;4987350;28;20120;-79
2023/05/22 09:57:02;;;;;;;9.77;8.85;;;;;;;;;;4976784;28;20033;-79
2023/05/22 09:59:31;;;;;;;8.70;7.90;;;;;;;;;;4989459;28;20042;-79
2023/05/22 10:01:57;;;;;;;9.38;8.45;;;;;;;;;;4994757;28;20420;-79
2023/05/22 10:04:24;;;;;;;9.25;8.32;;;;;;;;;;4993847;28;20833;-79
2023/05/22 10:06:52;;;;;;;10.20;8.20;;;;;;;;;;4978592;28;20526;-79
2023/05/22 10:09:22;;;;;;;9.48;8.48;;;;;;;;;;4984157;28;20065;-79
2023/05/22 10:11:51;;;;;;;8.20;7.45;;;;;;;;;;4986129;28;20050;-79
2023/05/22 10:14:17;;;;;;;8.10;7.37;;;;;;;;;;4987817;28;20120;-79
2023/05/22 10:16:43;;;;;;;9.13;8.23;;;;;;;;;;4993985;28;20129;-79
2023/05/22 10:19:10;;;;;;;8.77;7.78;;;;;;;;;;4969389;28;20041;-79
2023/05/22 10:21:40;;;;;;;8.80;7.90;;;;;;;;;;4997103;28;20438;-79
2023/05/22 10:24:06;;;;;;;9.88;7.32;;;;;;;;;;4985686;28;20044;-79
2023/05/22 10:26:32;;;;;;;9.30;7.97;;;;;;;;;;4969240;28;20517;-79
2023/05/22 10:29:06;;;;;;;8.27;7.47;;;;;;;;;;4981702;28;20041;-79
2023/05/22 10:31:44;;;;;;;8.50;7.55;;;;;;;;;;4975048;28;20055;-79
2023/05/22 10:34:15;;;;;;;8.80;7.90;;;;;;;;;;4985771;28;20034;-80
2023/05/22 10:37:05;;;;;;;8.50;7.28;;;;;;;;;;4965613;28;20125;-79
2023/05/22 10:39:41;;;;;;;9.20;8.30;;;;;;;;;;4988138;28;20045;-79
2023/05/22 10:42:13;;;;;;;8.65;7.75;;;;;;;;;;4976460;28;20521;-79
2023/05/22 10:44:40;;;;;;;9.75;7.72;;;;;;;;;;4985439;28;20041;-79
2023/05/22 10:47:10;;;;;;;8.73;7.93;;;;;;;;;;4961192;28;20081;-79
2023/05/22 10:49:35;;;;;;;8.30;7.50;;;;;;;;;;4977376;28;20038;-79
2023/05/22 10:52:02;;;;;;;10.57;8.00;;;;;;;;;;4973898;28;20439;-79
2023/05/22 10:54:41;;;;;;;9.68;8.38;;;;;;;;;;4968063;28;20525;-79
2023/05/22 10:57:13;;;;;;;7.95;7.15;;;;;;;;;;4967997;28;20312;-80
2023/05/22 10:59:38;;;;;;;6.90;6.20;;;;;;;;;;5005112;28;20493;-79
2023/05/22 11:02:05;;;;;;;7.15;6.55;;;;;;;;;;5006266;28;20122;-77
2023/05/22 11:04:31;;;;;;;9.02;6.90;;;;;;;;;;4997449;28;20066;-80
2023/05/22 11:07:04;;;;;;;8.63;7.78;;;;;;;;;;4969136;28;20073;-78
2023/05/22 11:09:47;;;;;;;8.23;7.13;;;;;;;;;;4975388;28;20421;-79
2023/05/22 11:12:23;;;;;;;7.13;6.43;;;;;;;;;;4959545;28;20110;-80
2023/05/22 11:15:08;;;;;;;6.70;6.07;;;;;;;;;;5001852;28;20124;-77
2023/05/22 11:17:45;;;;;;;7.30;6.60;;;;;;;;;;4990121;28;20047;-76
2023/05/22 11:20:16;;;;;;;7.50;6.50;;;;;;;;;;4976527;28;20041;-77
2023/05/22 11:22:43;;;;;;;6.65;5.93;;;;;;;;;;4991742;28;20049;-78
2023/05/22 11:25:13;;;;;;;6.75;5.95;;;;;;;;;;4975272;28;20043;-77
2023/05/22 11:27:40;;;;;;;6.10;5.60;;;;;;;;;;4977078;28;20109;-78
2023/05/22 11:30:07;;;;;;;6.60;6.00;;;;;;;;;;4971496;28;20066;-77
2023/05/22 11:32:35;;;;;;;7.55;6.07;;;;;;;;;;4973213;28;20489;-76
2023/05/22 11:35:00;;;;;;;6.60;5.90;;;;;;;;;;4990648;28;20541;-75
2023/05/22 11:37:26;;;;;;;6.85;6.15;;;;;;;;;;4973583;28;20040;-78
2023/05/22 11:39:55;;;;;;;6.95;6.10;;;;;;;;;;4989713;28;20109;-77
2023/05/22 11:42:21;;;;;;;7.03;6.32;;;;;;;;;;4982603;28;20030;-76
2023/05/22 11:44:47;;;;;;;7.22;6.53;;;;;;;;;;4990118;28;20148;-77
2023/05/22 11:47:13;;;;;;;8.02;5.90;;;;;;;;;;4955571;28;20132;-77
2023/05/22 11:49:40;;;;;;;7.60;6.82;;;;;;;;;;4976262;28;20149;-77
2023/05/22 11:52:06;;;;;;;6.97;6.35;;;;;;;;;;4980106;28;20055;-77
2023/05/22 11:54:32;;;;;;;6.97;6.38;;;;;;;;;;4973007;28;20044;-78
2023/05/22 11:56:57;;;;;;;7.07;6.47;;;;;;;;;;5013519;28;20049;-77
2023/05/22 11:59:23;;;;;;;6.80;6.20;;;;;;;;;;5005430;28;20046;-77
2023/05/22 12:01:51;;;;;;;6.65;6.05;;;;;;;;;;4960356;28;20038;-78
2023/05/22 12:04:17;;;;;;;7.45;6.10;;;;;;;;;;4974299;28;20135;-78
2023/05/22 12:06:43;;;;;;;6.75;6.15;;;;;;;;;;5000425;28;20169;-76
2023/05/22 12:09:09;;;;;;;6.68;5.72;;;;;;;;;;4965867;28;20120;-76
2023/05/22 12:11:35;;;;;;;8.93;6.03;;;;;;;;;;4991740;28;20046;-76
2023/05/22 12:14:02;;;;;;;6.75;6.13;;;;;;;;;;4997824;28;20045;-79
2023/05/22 12:16:34;;;;;;;7.05;6.40;;;;;;;;;;4986167;28;20068;-78
2023/05/22 12:19:02;;;;;;;6.55;6.03;;;;;;;;;;4968485;28;20500;-79
2023/05/22 12:21:28;;;;;;;6.55;6.05;;;;;;;;;;4967680;28;20113;-78
2023/05/22 12:23:54;;;;;;;6.70;5.90;;;;;;;;;;4991059;28;20108;-78
2023/05/22 12:26:20;;;;;;;8.48;6.63;;;;;;;;;;4991508;28;20050;-79
2023/05/22 12:28:45;;;;;;;7.90;6.38;;;;;;;;;;4974508;28;20054;-79
2023/05/22 12:31:19;;;;;;;7.68;6.03;;;;;;;;;;4945102;28;20132;-76
2023/05/22 12:33:45;;;;;;;6.85;6.30;;;;;;;;;;4994935;28;20141;-78
2023/05/22 12:36:10;;;;;;;7.40;6.70;;;;;;;;;;4978359;28;20683;-79
2023/05/22 12:38:38;;;;;;;6.82;6.22;;;;;;;;;;4994753;28;20037;-80
2023/05/22 12:41:03;;;;;;;9.18;6.97;;;;;;;;;;4984811;28;20476;-78
2023/05/22 12:43:29;;;;;;;8.60;6.57;;;;;;;;;;4972173;28;20038;-78
2023/05/22 12:45:54;;;;;;;7.47;6.50;;;;;;;;;;4975342;28;20045;-79
2023/05/22 12:48:19;;;;;;;8.23;6.35;;;;;;;;;;4980806;28;20065;-79
2023/05/22 12:50:45;;;;;;;8.43;5.82;;;;;;;;;;4990547;28;20519;-78
2023/05/22 12:53:12;;;;;;;6.47;5.88;;;;;;;;;;4983677;28;20037;-81
2023/05/22 12:55:38;;;;;;;7.05;6.05;;;;;;;;;;4993965;28;20041;-78
2023/05/22 12:58:04;;;;;;;7.15;5.90;;;;;;;;;;4985850;28;20033;-80
2023/05/22 13:00:30;;;;;;;6.80;6.03;;;;;;;;;;4974552;28;20045;-79
2023/05/22 13:02:56;;;;;;;7.32;6.70;;;;;;;;;;4987616;28;20044;-80
2023/05/22 13:05:21;;;;;;;7.00;6.18;;;;;;;;;;4990720;28;20049;-78
2023/05/22 13:07:47;;;;;;;6.80;5.88;;;;;;;;;;4976384;28;20422;-78
2023/05/22 13:10:12;;;;;;;7.55;5.70;;;;;;;;;;4977202;28;20076;-79
2023/05/22 13:12:38;;;;;;;7.43;6.30;;;;;;;;;;4976986;28;20181;-79
2023/05/22 13:15:04;;;;;;;7.10;6.15;;;;;;;;;;4970818;28;20038;-78
2023/05/22 13:17:30;;;;;;;6.30;5.80;;;;;;;;;;4980194;28;20049;-78
2023/05/22 13:19:56;;;;;;;7.13;6.03;;;;;;;;;;4989987;28;20034;-79
2023/05/22 13:22:22;;;;;;;6.63;6.00;;;;;;;;;;4972625;28;20112;-79
2023/05/22 13:24:48;;;;;;;6.57;5.40;;;;;;;;;;4995245;28;20038;-79
2023/05/22 13:27:16;;;;;;;6.88;6.18;;;;;;;;;;4959643;28;20104;-78
2023/05/22 13:29:42;;;;;;;7.78;6.55;;;;;;;;;;4986988;28;20041;-80
2023/05/22 13:32:08;;;;;;;6.40;5.90;;;;;;;;;;4968833;28;20040;-78
2023/05/22 13:34:33;;;;;;;6.63;5.95;;;;;;;;;;4983306;28;20520;-79
2023/05/22 13:36:59;;;;;;;7.57;6.38;;;;;;;;;;4976400;28;20092;-80
2023/05/22 13:39:24;;;;;;;7.47;6.32;;;;;;;;;;4982510;28;20044;-79
2023/05/22 13:41:52;;;;;;;6.85;6.25;;;;;;;;;;4982317;28;20525;-80
2023/05/22 13:44:19;;;;;;;7.32;6.43;;;;;;;;;;4998608;28;20035;-78
2023/05/22 13:46:44;;;;;;;6.55;5.95;;;;;;;;;;4972974;28;20092;-79
2023/05/22 13:49:10;;;;;;;6.95;6.35;;;;;;;;;;4974576;28;20444;-77
2023/05/22 13:51:36;;;;;;;6.47;5.97;;;;;;;;;;4972673;28;20042;-75
2023/05/22 13:54:02;;;;;;;6.75;5.68;;;;;;;;;;4963607;28;20148;-75
2023/05/22 13:56:27;;;;;;;6.75;6.10;;;;;;;;;;4966058;28;20037;-76
2023/05/22 13:58:53;;;;;;;7.95;6.10;;;;;;;;;;4966235;28;20071;-76
2023/05/22 14:01:18;;;;;;;5.72;5.22;;;;;;;;;;4993843;28;20070;-78
2023/05/22 14:03:44;;;;;;;6.97;5.72;;;;;;;;;;4984005;28;20045;-79
2023/05/22 14:06:09;;;;;;;6.47;5.88;;;;;;;;;;4982038;28;20041;-79
2023/05/22 14:08:35;;;;;;;6.70;6.10;;;;;;;;;;4972185;28;20037;-80
2023/05/22 14:11:00;;;;;;;8.30;6.07;;;;;;;;;;4990858;28;20042;-78
2023/05/22 14:13:26;;;;;;;6.70;6.10;;;;;;;;;;4968933;28;20041;-79
2023/05/22 14:15:51;;;;;;;6.78;5.43;;;;;;;;;;5006455;28;20124;-80
2023/05/22 14:18:17;;;;;;;6.93;5.82;;;;;;;;;;4993893;28;20129;-79
2023/05/22 14:20:43;;;;;;;6.68;5.90;;;;;;;;;;4986035;28;20046;-78
2023/05/22 14:23:08;;;;;;;5.95;5.45;;;;;;;;;;4969428;28;20046;-78
2023/05/22 14:25:34;;;;;;;6.18;5.57;;;;;;;;;;4969653;28;20057;-79
2023/05/22 14:28:00;;;;;;;6.20;5.60;;;;;;;;;;4968818;28;20061;-78
2023/05/22 14:30:26;;;;;;;5.82;5.18;;;;;;;;;;4990360;28;20109;-80
2023/05/22 14:32:51;;;;;;;7.60;6.00;;;;;;;;;;4971127;28;20076;-80
2023/05/22 14:35:17;;;;;;;6.00;5.07;;;;;;;;;;4984044;28;20084;-79